sensor_id;sensor_type;location;lat;lon;timestamp;P1;durP1;ratioP1;P2;durP2;ratioP2
68866;SDS011;56451;44.804;20.476;2023-03-31T00:00:44;19.80;;;10.02;;
68866;SDS011;56451;44.804;20.476;2023-03-31T00:03:13;20.70;;;10.15;;
68866;SDS011;56451;44.804;20.476;2023-03-31T00:05:46;16.92;;;9.15;;
68866;SDS011;56451;44.804;20.476;2023-03-31T00:08:12;17.05;;;9.60;;
68866;SDS011;56451;44.804;20.476;2023-03-31T00:10:43;16.43;;;9.27;;
68866;SDS011;56451;44.804;20.476;2023-03-31T00:13:11;30.80;;;12.40;;
68866;SDS011;56451;44.804;20.476;2023-03-31T00:15:37;16.50;;;9.20;;
68866;SDS011;56451;44.804;20.476;2023-03-31T00:18:03;15.50;;;8.73;;
68866;SDS011;56451;44.804;20.476;2023-03-31T00:20:29;16.88;;;9.43;;
68866;SDS011;56451;44.804;20.476;2023-03-31T00:22:58;16.37;;;9.27;;
68866;SDS011;56451;44.804;20.476;2023-03-31T00:25:26;13.10;;;7.47;;
68866;SDS011;56451;44.804;20.476;2023-03-31T00:27:52;19.27;;;8.32;;
68866;SDS011;56451;44.804;20.476;2023-03-31T00:30:18;15.93;;;8.38;;
68866;SDS011;56451;44.804;20.476;2023-03-31T00:32:44;15.80;;;7.60;;
68866;SDS011;56451;44.804;20.476;2023-03-31T00:35:10;18.47;;;7.83;;
68866;SDS011;56451;44.804;20.476;2023-03-31T00:37:37;20.90;;;8.93;;
68866;SDS011;56451;44.804;20.476;2023-03-31T00:40:03;13.13;;;6.97;;
68866;SDS011;56451;44.804;20.476;2023-03-31T00:42:38;12.95;;;7.03;;
68866;SDS011;56451;44.804;20.476;2023-03-31T00:47:39;15.57;;;6.63;;
68866;SDS011;56451;44.804;20.476;2023-03-31T00:50:24;12.77;;;6.68;;
68866;SDS011;56451;44.804;20.476;2023-03-31T00:52:57;14.55;;;6.72;;
68866;SDS011;56451;44.804;20.476;2023-03-31T00:55:48;10.75;;;5.95;;
68866;SDS011;56451;44.804;20.476;2023-03-31T00:58:17;12.03;;;6.27;;
68866;SDS011;56451;44.804;20.476;2023-03-31T01:00:48;14.90;;;6.55;;
68866;SDS011;56451;44.804;20.476;2023-03-31T01:03:18;17.23;;;7.53;;
68866;SDS011;56451;44.804;20.476;2023-03-31T01:05:50;14.25;;;6.80;;
68866;SDS011;56451;44.804;20.476;2023-03-31T01:08:21;11.07;;;5.93;;
68866;SDS011;56451;44.804;20.476;2023-03-31T01:10:54;25.47;;;6.60;;
68866;SDS011;56451;44.804;20.476;2023-03-31T01:13:22;14.82;;;6.75;;
68866;SDS011;56451;44.804;20.476;2023-03-31T01:15:50;12.07;;;5.93;;
68866;SDS011;56451;44.804;20.476;2023-03-31T01:18:17;14.50;;;6.85;;
68866;SDS011;56451;44.804;20.476;2023-03-31T01:40:40;8.85;;;3.30;;
68866;SDS011;56451;44.804;20.476;2023-03-31T01:43:31;17.17;;;6.50;;
68866;SDS011;56451;44.804;20.476;2023-03-31T01:49:17;15.10;;;4.97;;
68866;SDS011;56451;44.804;20.476;2023-03-31T01:51:56;28.05;;;7.47;;
68866;SDS011;56451;44.804;20.476;2023-03-31T01:59:38;6.38;;;2.65;;
68866;SDS011;56451;44.804;20.476;2023-03-31T02:02:12;4.50;;;2.03;;
68866;SDS011;56451;44.804;20.476;2023-03-31T02:04:56;8.55;;;3.05;;
68866;SDS011;56451;44.804;20.476;2023-03-31T02:07:31;5.15;;;1.90;;
68866;SDS011;56451;44.804;20.476;2023-03-31T02:10:02;13.43;;;3.85;;
68866;SDS011;56451;44.804;20.476;2023-03-31T02:12:32;4.53;;;1.45;;
68866;SDS011;56451;44.804;20.476;2023-03-31T02:14:59;6.00;;;2.03;;
68866;SDS011;56451;44.804;20.476;2023-03-31T02:17:28;6.35;;;1.60;;
68866;SDS011;56451;44.804;20.476;2023-03-31T02:19:56;8.85;;;2.53;;
68866;SDS011;56451;44.804;20.476;2023-03-31T02:22:26;5.10;;;1.85;;
68866;SDS011;56451;44.804;20.476;2023-03-31T02:24:56;5.20;;;1.65;;
68866;SDS011;56451;44.804;20.476;2023-03-31T02:27:24;7.70;;;1.57;;
68866;SDS011;56451;44.804;20.476;2023-03-31T02:29:54;8.02;;;1.88;;
68866;SDS011;56451;44.804;20.476;2023-03-31T02:32:23;3.70;;;1.48;;
68866;SDS011;56451;44.804;20.476;2023-03-31T02:34:54;6.00;;;1.45;;
68866;SDS011;56451;44.804;20.476;2023-03-31T02:37:20;6.88;;;1.80;;
68866;SDS011;56451;44.804;20.476;2023-03-31T02:39:47;5.77;;;2.00;;
68866;SDS011;56451;44.804;20.476;2023-03-31T02:42:15;4.35;;;1.27;;
68866;SDS011;56451;44.804;20.476;2023-03-31T02:44:42;7.20;;;1.35;;
68866;SDS011;56451;44.804;20.476;2023-03-31T02:47:09;9.77;;;2.38;;
68866;SDS011;56451;44.804;20.476;2023-03-31T02:49:38;3.13;;;1.58;;
68866;SDS011;56451;44.804;20.476;2023-03-31T02:52:10;5.13;;;1.80;;
68866;SDS011;56451;44.804;20.476;2023-03-31T02:54:53;6.78;;;2.47;;
68866;SDS011;56451;44.804;20.476;2023-03-31T03:03:19;6.95;;;1.77;;
68866;SDS011;56451;44.804;20.476;2023-03-31T03:09:44;4.43;;;2.10;;
68866;SDS011;56451;44.804;20.476;2023-03-31T03:12:40;7.47;;;1.77;;
68866;SDS011;56451;44.804;20.476;2023-03-31T03:15:16;6.85;;;1.63;;
68866;SDS011;56451;44.804;20.476;2023-03-31T03:18:05;6.85;;;2.78;;
68866;SDS011;56451;44.804;20.476;2023-03-31T03:20:31;4.90;;;1.80;;
68866;SDS011;56451;44.804;20.476;2023-03-31T03:22:58;10.52;;;2.65;;
68866;SDS011;56451;44.804;20.476;2023-03-31T03:25:24;6.05;;;2.25;;
68866;SDS011;56451;44.804;20.476;2023-03-31T03:27:50;4.15;;;1.58;;
68866;SDS011;56451;44.804;20.476;2023-03-31T03:30:17;5.03;;;2.25;;
68866;SDS011;56451;44.804;20.476;2023-03-31T03:32:43;4.27;;;2.03;;
68866;SDS011;56451;44.804;20.476;2023-03-31T03:35:10;3.17;;;1.70;;
68866;SDS011;56451;44.804;20.476;2023-03-31T03:37:36;4.75;;;1.90;;
68866;SDS011;56451;44.804;20.476;2023-03-31T03:40:03;5.47;;;2.55;;
68866;SDS011;56451;44.804;20.476;2023-03-31T03:42:32;4.45;;;2.30;;
68866;SDS011;56451;44.804;20.476;2023-03-31T03:45:00;12.43;;;3.83;;
68866;SDS011;56451;44.804;20.476;2023-03-31T03:47:26;7.43;;;2.17;;
68866;SDS011;56451;44.804;20.476;2023-03-31T03:49:52;7.93;;;2.38;;
68866;SDS011;56451;44.804;20.476;2023-03-31T03:52:18;9.23;;;2.40;;
68866;SDS011;56451;44.804;20.476;2023-03-31T03:54:45;4.68;;;2.00;;
68866;SDS011;56451;44.804;20.476;2023-03-31T03:57:11;8.30;;;2.60;;
68866;SDS011;56451;44.804;20.476;2023-03-31T03:59:37;8.90;;;2.97;;
68866;SDS011;56451;44.804;20.476;2023-03-31T04:02:03;6.03;;;2.33;;
68866;SDS011;56451;44.804;20.476;2023-03-31T04:04:29;3.57;;;1.70;;
68866;SDS011;56451;44.804;20.476;2023-03-31T04:06:55;6.75;;;1.48;;
68866;SDS011;56451;44.804;20.476;2023-03-31T04:09:20;4.43;;;1.38;;
68866;SDS011;56451;44.804;20.476;2023-03-31T04:11:46;4.05;;;1.42;;
68866;SDS011;56451;44.804;20.476;2023-03-31T04:14:12;8.27;;;3.23;;
68866;SDS011;56451;44.804;20.476;2023-03-31T04:16:38;6.10;;;2.22;;
68866;SDS011;56451;44.804;20.476;2023-03-31T04:19:05;15.00;;;4.53;;
68866;SDS011;56451;44.804;20.476;2023-03-31T04:21:31;4.50;;;1.73;;
68866;SDS011;56451;44.804;20.476;2023-03-31T04:23:59;4.87;;;1.70;;
68866;SDS011;56451;44.804;20.476;2023-03-31T04:26:32;4.22;;;1.58;;
68866;SDS011;56451;44.804;20.476;2023-03-31T04:29:09;5.97;;;2.25;;
68866;SDS011;56451;44.804;20.476;2023-03-31T04:31:37;6.85;;;2.17;;
68866;SDS011;56451;44.804;20.476;2023-03-31T04:34:13;8.57;;;2.03;;
68866;SDS011;56451;44.804;20.476;2023-03-31T04:36:42;7.03;;;1.80;;
68866;SDS011;56451;44.804;20.476;2023-03-31T04:39:17;5.25;;;1.77;;
68866;SDS011;56451;44.804;20.476;2023-03-31T04:41:55;10.57;;;3.17;;
68866;SDS011;56451;44.804;20.476;2023-03-31T04:44:22;5.20;;;2.00;;
68866;SDS011;56451;44.804;20.476;2023-03-31T04:46:48;8.38;;;1.83;;
68866;SDS011;56451;44.804;20.476;2023-03-31T04:49:14;7.23;;;2.40;;
68866;SDS011;56451;44.804;20.476;2023-03-31T04:51:40;7.30;;;2.05;;
68866;SDS011;56451;44.804;20.476;2023-03-31T04:54:06;5.03;;;2.00;;
68866;SDS011;56451;44.804;20.476;2023-03-31T04:56:32;6.85;;;3.00;;
68866;SDS011;56451;44.804;20.476;2023-03-31T04:58:58;5.97;;;2.07;;
68866;SDS011;56451;44.804;20.476;2023-03-31T05:01:24;5.78;;;2.13;;
68866;SDS011;56451;44.804;20.476;2023-03-31T05:03:50;5.75;;;2.00;;
68866;SDS011;56451;44.804;20.476;2023-03-31T05:06:16;11.17;;;3.03;;
68866;SDS011;56451;44.804;20.476;2023-03-31T05:08:43;10.05;;;3.70;;
68866;SDS011;56451;44.804;20.476;2023-03-31T05:11:09;5.40;;;2.72;;
68866;SDS011;56451;44.804;20.476;2023-03-31T05:13:36;5.18;;;2.28;;
68866;SDS011;56451;44.804;20.476;2023-03-31T05:16:05;7.80;;;2.38;;
68866;SDS011;56451;44.804;20.476;2023-03-31T05:18:36;5.13;;;1.90;;
68866;SDS011;56451;44.804;20.476;2023-03-31T05:21:09;5.80;;;2.03;;
68866;SDS011;56451;44.804;20.476;2023-03-31T05:23:35;6.95;;;2.60;;
68866;SDS011;56451;44.804;20.476;2023-03-31T05:26:01;5.77;;;2.10;;
68866;SDS011;56451;44.804;20.476;2023-03-31T05:28:27;5.20;;;2.20;;
68866;SDS011;56451;44.804;20.476;2023-03-31T05:30:53;7.18;;;2.40;;
68866;SDS011;56451;44.804;20.476;2023-03-31T05:33:19;6.03;;;2.38;;
68866;SDS011;56451;44.804;20.476;2023-03-31T05:35:45;6.23;;;2.43;;
68866;SDS011;56451;44.804;20.476;2023-03-31T05:38:11;5.03;;;2.17;;
68866;SDS011;56451;44.804;20.476;2023-03-31T05:40:36;8.20;;;2.88;;
68866;SDS011;56451;44.804;20.476;2023-03-31T05:43:02;5.10;;;2.23;;
68866;SDS011;56451;44.804;20.476;2023-03-31T05:45:28;6.47;;;2.35;;
68866;SDS011;56451;44.804;20.476;2023-03-31T05:47:54;8.20;;;2.40;;
68866;SDS011;56451;44.804;20.476;2023-03-31T05:50:20;3.90;;;2.00;;
68866;SDS011;56451;44.804;20.476;2023-03-31T05:52:46;5.07;;;2.20;;
68866;SDS011;56451;44.804;20.476;2023-03-31T05:55:12;4.18;;;2.10;;
68866;SDS011;56451;44.804;20.476;2023-03-31T05:57:38;4.10;;;1.90;;
68866;SDS011;56451;44.804;20.476;2023-03-31T06:00:04;8.90;;;3.63;;
68866;SDS011;56451;44.804;20.476;2023-03-31T06:02:31;6.57;;;2.45;;
68866;SDS011;56451;44.804;20.476;2023-03-31T06:04:58;8.23;;;2.53;;
68866;SDS011;56451;44.804;20.476;2023-03-31T06:07:23;8.67;;;4.03;;
68866;SDS011;56451;44.804;20.476;2023-03-31T06:09:49;4.85;;;2.38;;
68866;SDS011;56451;44.804;20.476;2023-03-31T06:12:16;6.43;;;2.40;;
68866;SDS011;56451;44.804;20.476;2023-03-31T06:14:42;4.57;;;2.17;;
68866;SDS011;56451;44.804;20.476;2023-03-31T06:17:08;7.60;;;2.00;;
68866;SDS011;56451;44.804;20.476;2023-03-31T06:19:34;10.93;;;2.63;;
68866;SDS011;56451;44.804;20.476;2023-03-31T06:22:00;6.68;;;2.47;;
68866;SDS011;56451;44.804;20.476;2023-03-31T06:24:26;6.68;;;2.70;;
68866;SDS011;56451;44.804;20.476;2023-03-31T06:26:52;6.97;;;3.27;;
68866;SDS011;56451;44.804;20.476;2023-03-31T06:29:18;6.88;;;3.17;;
68866;SDS011;56451;44.804;20.476;2023-03-31T06:31:44;6.93;;;3.40;;
68866;SDS011;56451;44.804;20.476;2023-03-31T06:34:10;7.00;;;3.37;;
68866;SDS011;56451;44.804;20.476;2023-03-31T06:36:36;10.85;;;3.92;;
68866;SDS011;56451;44.804;20.476;2023-03-31T06:39:02;5.38;;;2.20;;
68866;SDS011;56451;44.804;20.476;2023-03-31T06:41:28;8.50;;;3.70;;
68866;SDS011;56451;44.804;20.476;2023-03-31T06:43:54;7.60;;;3.30;;
68866;SDS011;56451;44.804;20.476;2023-03-31T06:46:20;8.07;;;2.40;;
68866;SDS011;56451;44.804;20.476;2023-03-31T06:48:46;6.07;;;2.60;;
68866;SDS011;56451;44.804;20.476;2023-03-31T06:51:12;10.68;;;4.30;;
68866;SDS011;56451;44.804;20.476;2023-03-31T06:53:38;7.37;;;2.60;;
68866;SDS011;56451;44.804;20.476;2023-03-31T06:56:04;8.98;;;2.70;;
68866;SDS011;56451;44.804;20.476;2023-03-31T06:58:31;7.53;;;2.58;;
68866;SDS011;56451;44.804;20.476;2023-03-31T07:00:57;6.03;;;2.67;;
68866;SDS011;56451;44.804;20.476;2023-03-31T07:03:23;9.40;;;2.47;;
68866;SDS011;56451;44.804;20.476;2023-03-31T07:05:53;7.77;;;2.60;;
68866;SDS011;56451;44.804;20.476;2023-03-31T07:08:20;7.18;;;2.58;;
68866;SDS011;56451;44.804;20.476;2023-03-31T07:10:47;9.65;;;2.88;;
68866;SDS011;56451;44.804;20.476;2023-03-31T07:13:15;13.07;;;3.78;;
68866;SDS011;56451;44.804;20.476;2023-03-31T07:15:42;22.45;;;15.23;;
68866;SDS011;56451;44.804;20.476;2023-03-31T07:18:11;6.83;;;3.03;;
68866;SDS011;56451;44.804;20.476;2023-03-31T07:20:40;14.77;;;2.70;;
68866;SDS011;56451;44.804;20.476;2023-03-31T07:23:06;7.45;;;3.65;;
68866;SDS011;56451;44.804;20.476;2023-03-31T07:25:33;5.63;;;2.60;;
68866;SDS011;56451;44.804;20.476;2023-03-31T07:27:59;6.60;;;3.67;;
68866;SDS011;56451;44.804;20.476;2023-03-31T07:30:26;10.87;;;3.20;;
68866;SDS011;56451;44.804;20.476;2023-03-31T07:32:52;4.50;;;2.25;;
68866;SDS011;56451;44.804;20.476;2023-03-31T07:35:19;7.13;;;2.22;;
68866;SDS011;56451;44.804;20.476;2023-03-31T07:37:46;13.55;;;4.82;;
68866;SDS011;56451;44.804;20.476;2023-03-31T07:40:27;7.55;;;2.50;;
68866;SDS011;56451;44.804;20.476;2023-03-31T07:42:53;8.13;;;2.90;;
68866;SDS011;56451;44.804;20.476;2023-03-31T07:45:20;6.00;;;2.10;;
68866;SDS011;56451;44.804;20.476;2023-03-31T07:47:48;8.00;;;2.33;;
68866;SDS011;56451;44.804;20.476;2023-03-31T07:50:15;6.72;;;2.17;;
68866;SDS011;56451;44.804;20.476;2023-03-31T07:52:41;5.45;;;2.03;;
68866;SDS011;56451;44.804;20.476;2023-03-31T07:55:08;9.60;;;2.13;;
68866;SDS011;56451;44.804;20.476;2023-03-31T07:57:34;9.63;;;2.85;;
68866;SDS011;56451;44.804;20.476;2023-03-31T08:00:02;11.15;;;5.80;;
68866;SDS011;56451;44.804;20.476;2023-03-31T08:02:40;5.90;;;2.05;;
68866;SDS011;56451;44.804;20.476;2023-03-31T08:05:07;8.23;;;2.22;;
68866;SDS011;56451;44.804;20.476;2023-03-31T08:07:34;6.90;;;2.43;;
68866;SDS011;56451;44.804;20.476;2023-03-31T08:10:03;5.70;;;2.00;;
68866;SDS011;56451;44.804;20.476;2023-03-31T08:12:31;8.15;;;2.88;;
68866;SDS011;56451;44.804;20.476;2023-03-31T08:14:57;5.63;;;2.80;;
68866;SDS011;56451;44.804;20.476;2023-03-31T08:17:23;10.55;;;2.78;;
68866;SDS011;56451;44.804;20.476;2023-03-31T08:19:49;5.93;;;2.37;;
68866;SDS011;56451;44.804;20.476;2023-03-31T08:22:16;5.10;;;2.10;;
68866;SDS011;56451;44.804;20.476;2023-03-31T08:24:42;4.60;;;1.40;;
68866;SDS011;56451;44.804;20.476;2023-03-31T08:27:08;6.90;;;1.95;;
68866;SDS011;56451;44.804;20.476;2023-03-31T08:29:34;6.63;;;2.83;;
68866;SDS011;56451;44.804;20.476;2023-03-31T08:32:00;6.07;;;2.20;;
68866;SDS011;56451;44.804;20.476;2023-03-31T08:34:26;10.07;;;2.25;;
68866;SDS011;56451;44.804;20.476;2023-03-31T08:36:52;5.10;;;1.70;;
68866;SDS011;56451;44.804;20.476;2023-03-31T08:39:19;3.40;;;1.70;;
68866;SDS011;56451;44.804;20.476;2023-03-31T08:44:22;4.95;;;1.90;;
68866;SDS011;56451;44.804;20.476;2023-03-31T08:47:11;5.38;;;2.10;;
68866;SDS011;56451;44.804;20.476;2023-03-31T08:49:44;4.38;;;1.92;;
68866;SDS011;56451;44.804;20.476;2023-03-31T08:52:14;6.43;;;1.60;;
68866;SDS011;56451;44.804;20.476;2023-03-31T08:54:54;7.85;;;2.42;;
68866;SDS011;56451;44.804;20.476;2023-03-31T08:57:27;3.42;;;1.65;;
68866;SDS011;56451;44.804;20.476;2023-03-31T09:00:00;7.35;;;2.00;;
68866;SDS011;56451;44.804;20.476;2023-03-31T09:10:55;4.63;;;1.85;;
68866;SDS011;56451;44.804;20.476;2023-03-31T09:16:04;5.63;;;1.90;;
68866;SDS011;56451;44.804;20.476;2023-03-31T09:18:39;6.95;;;1.90;;
68866;SDS011;56451;44.804;20.476;2023-03-31T09:26:24;4.23;;;2.00;;
68866;SDS011;56451;44.804;20.476;2023-03-31T09:28:51;6.45;;;2.10;;
68866;SDS011;56451;44.804;20.476;2023-03-31T09:31:19;10.07;;;2.33;;
68866;SDS011;56451;44.804;20.476;2023-03-31T09:33:46;8.15;;;1.70;;
68866;SDS011;56451;44.804;20.476;2023-03-31T09:36:16;5.53;;;2.00;;
68866;SDS011;56451;44.804;20.476;2023-03-31T09:38:44;5.87;;;2.17;;
68866;SDS011;56451;44.804;20.476;2023-03-31T09:41:11;7.82;;;2.10;;
68866;SDS011;56451;44.804;20.476;2023-03-31T09:43:39;7.50;;;1.90;;
68866;SDS011;56451;44.804;20.476;2023-03-31T09:46:12;7.18;;;2.60;;
68866;SDS011;56451;44.804;20.476;2023-03-31T09:49:33;6.20;;;1.80;;
68866;SDS011;56451;44.804;20.476;2023-03-31T09:51:37;4.43;;;2.70;;
68866;SDS011;56451;44.804;20.476;2023-03-31T09:56:56;6.93;;;2.38;;
68866;SDS011;56451;44.804;20.476;2023-03-31T09:59:23;8.30;;;1.80;;
68866;SDS011;56451;44.804;20.476;2023-03-31T10:01:59;6.25;;;1.90;;
68866;SDS011;56451;44.804;20.476;2023-03-31T10:04:29;5.60;;;2.03;;
68866;SDS011;56451;44.804;20.476;2023-03-31T10:06:57;5.15;;;1.75;;
68866;SDS011;56451;44.804;20.476;2023-03-31T10:09:26;5.40;;;1.98;;
68866;SDS011;56451;44.804;20.476;2023-03-31T10:12:04;4.78;;;1.60;;
68866;SDS011;56451;44.804;20.476;2023-03-31T10:14:38;4.30;;;1.90;;
68866;SDS011;56451;44.804;20.476;2023-03-31T10:17:06;7.03;;;2.10;;
68866;SDS011;56451;44.804;20.476;2023-03-31T10:19:38;7.95;;;2.08;;
68866;SDS011;56451;44.804;20.476;2023-03-31T10:22:14;4.22;;;1.88;;
68866;SDS011;56451;44.804;20.476;2023-03-31T10:24:51;5.20;;;1.70;;
68866;SDS011;56451;44.804;20.476;2023-03-31T10:29:46;5.93;;;1.83;;
68866;SDS011;56451;44.804;20.476;2023-03-31T10:32:25;3.58;;;1.90;;
68866;SDS011;56451;44.804;20.476;2023-03-31T10:34:54;6.55;;;1.70;;
68866;SDS011;56451;44.804;20.476;2023-03-31T10:37:22;4.70;;;1.70;;
68866;SDS011;56451;44.804;20.476;2023-03-31T10:40:04;3.40;;;1.92;;
68866;SDS011;56451;44.804;20.476;2023-03-31T10:42:44;5.67;;;1.80;;
68866;SDS011;56451;44.804;20.476;2023-03-31T10:45:24;3.85;;;1.80;;
68866;SDS011;56451;44.804;20.476;2023-03-31T10:47:53;4.18;;;1.60;;
68866;SDS011;56451;44.804;20.476;2023-03-31T10:50:34;4.88;;;2.03;;
68866;SDS011;56451;44.804;20.476;2023-03-31T10:53:04;4.82;;;1.67;;
68866;SDS011;56451;44.804;20.476;2023-03-31T10:55:38;5.33;;;1.90;;
68866;SDS011;56451;44.804;20.476;2023-03-31T11:06:10;5.70;;;1.95;;
68866;SDS011;56451;44.804;20.476;2023-03-31T11:11:48;5.88;;;1.90;;
68866;SDS011;56451;44.804;20.476;2023-03-31T11:23:11;5.03;;;2.40;;
68866;SDS011;56451;44.804;20.476;2023-03-31T11:26:08;3.22;;;1.80;;
68866;SDS011;56451;44.804;20.476;2023-03-31T11:42:48;5.97;;;1.73;;
68866;SDS011;56451;44.804;20.476;2023-03-31T11:45:22;7.95;;;1.95;;
68866;SDS011;56451;44.804;20.476;2023-03-31T11:47:53;3.35;;;1.42;;
68866;SDS011;56451;44.804;20.476;2023-03-31T11:50:24;7.30;;;1.90;;
68866;SDS011;56451;44.804;20.476;2023-03-31T11:52:57;5.35;;;1.80;;
68866;SDS011;56451;44.804;20.476;2023-03-31T11:55:27;8.13;;;1.77;;
68866;SDS011;56451;44.804;20.476;2023-03-31T12:00:27;9.27;;;2.20;;
68866;SDS011;56451;44.804;20.476;2023-03-31T12:02:58;7.20;;;1.90;;
68866;SDS011;56451;44.804;20.476;2023-03-31T12:05:32;7.53;;;1.92;;
68866;SDS011;56451;44.804;20.476;2023-03-31T12:10:36;5.72;;;1.55;;
68866;SDS011;56451;44.804;20.476;2023-03-31T12:15:47;9.20;;;2.07;;
68866;SDS011;56451;44.804;20.476;2023-03-31T12:18:25;4.65;;;1.83;;
68866;SDS011;56451;44.804;20.476;2023-03-31T12:20:58;4.30;;;2.15;;
68866;SDS011;56451;44.804;20.476;2023-03-31T12:23:29;5.50;;;1.67;;
68866;SDS011;56451;44.804;20.476;2023-03-31T12:28:47;3.27;;;1.70;;
68866;SDS011;56451;44.804;20.476;2023-03-31T12:31:20;4.68;;;1.52;;
68866;SDS011;56451;44.804;20.476;2023-03-31T12:34:22;5.82;;;1.90;;
68866;SDS011;56451;44.804;20.476;2023-03-31T12:44:20;4.70;;;1.70;;
68866;SDS011;56451;44.804;20.476;2023-03-31T12:55:46;3.30;;;1.53;;
68866;SDS011;56451;44.804;20.476;2023-03-31T13:01:07;5.65;;;1.98;;
68866;SDS011;56451;44.804;20.476;2023-03-31T13:08:55;6.20;;;2.10;;
68866;SDS011;56451;44.804;20.476;2023-03-31T13:16:28;3.83;;;2.25;;
68866;SDS011;56451;44.804;20.476;2023-03-31T13:18:55;4.88;;;2.28;;
68866;SDS011;56451;44.804;20.476;2023-03-31T13:21:22;5.43;;;2.10;;
68866;SDS011;56451;44.804;20.476;2023-03-31T13:23:48;3.00;;;1.90;;
68866;SDS011;56451;44.804;20.476;2023-03-31T13:34:33;5.17;;;1.93;;
68866;SDS011;56451;44.804;20.476;2023-03-31T13:51:14;5.55;;;2.30;;
68866;SDS011;56451;44.804;20.476;2023-03-31T14:02:35;4.30;;;2.23;;
68866;SDS011;56451;44.804;20.476;2023-03-31T14:10:48;8.57;;;2.53;;
68866;SDS011;56451;44.804;20.476;2023-03-31T14:13:15;6.47;;;2.30;;
68866;SDS011;56451;44.804;20.476;2023-03-31T14:15:48;4.17;;;2.33;;
68866;SDS011;56451;44.804;20.476;2023-03-31T14:18:28;8.35;;;2.50;;
68866;SDS011;56451;44.804;20.476;2023-03-31T14:23:53;4.50;;;2.00;;
68866;SDS011;56451;44.804;20.476;2023-03-31T14:34:45;5.05;;;2.60;;
68866;SDS011;56451;44.804;20.476;2023-03-31T14:37:22;6.00;;;2.10;;
68866;SDS011;56451;44.804;20.476;2023-03-31T14:39:50;3.83;;;1.85;;
68866;SDS011;56451;44.804;20.476;2023-03-31T14:42:23;6.50;;;2.50;;
68866;SDS011;56451;44.804;20.476;2023-03-31T14:45:15;6.03;;;2.28;;
68866;SDS011;56451;44.804;20.476;2023-03-31T14:47:52;4.55;;;2.22;;
68866;SDS011;56451;44.804;20.476;2023-03-31T14:50:30;4.97;;;2.40;;
68866;SDS011;56451;44.804;20.476;2023-03-31T14:52:59;6.63;;;2.63;;
68866;SDS011;56451;44.804;20.476;2023-03-31T14:55:30;5.00;;;2.00;;
68866;SDS011;56451;44.804;20.476;2023-03-31T14:57:59;4.85;;;2.10;;
68866;SDS011;56451;44.804;20.476;2023-03-31T15:00:27;4.63;;;2.10;;
68866;SDS011;56451;44.804;20.476;2023-03-31T15:02:57;4.93;;;2.08;;
68866;SDS011;56451;44.804;20.476;2023-03-31T15:05:33;6.18;;;2.63;;
68866;SDS011;56451;44.804;20.476;2023-03-31T15:08:01;4.93;;;2.13;;
68866;SDS011;56451;44.804;20.476;2023-03-31T15:10:30;5.43;;;2.03;;
68866;SDS011;56451;44.804;20.476;2023-03-31T15:13:47;9.05;;;2.05;;
68866;SDS011;56451;44.804;20.476;2023-03-31T15:15:47;4.65;;;2.10;;
68866;SDS011;56451;44.804;20.476;2023-03-31T15:18:14;5.67;;;2.37;;
68866;SDS011;56451;44.804;20.476;2023-03-31T15:20:42;4.28;;;2.20;;
68866;SDS011;56451;44.804;20.476;2023-03-31T15:26:02;3.65;;;1.80;;
68866;SDS011;56451;44.804;20.476;2023-03-31T15:28:37;4.45;;;2.08;;
68866;SDS011;56451;44.804;20.476;2023-03-31T15:31:09;6.73;;;1.77;;
68866;SDS011;56451;44.804;20.476;2023-03-31T15:33:35;5.93;;;2.25;;
68866;SDS011;56451;44.804;20.476;2023-03-31T15:36:09;6.05;;;2.22;;
68866;SDS011;56451;44.804;20.476;2023-03-31T15:38:36;9.00;;;2.60;;
68866;SDS011;56451;44.804;20.476;2023-03-31T15:41:02;5.80;;;2.35;;
68866;SDS011;56451;44.804;20.476;2023-03-31T15:43:49;5.63;;;2.00;;
68866;SDS011;56451;44.804;20.476;2023-03-31T15:49:03;5.22;;;3.30;;
68866;SDS011;56451;44.804;20.476;2023-03-31T15:51:34;6.10;;;3.42;;
68866;SDS011;56451;44.804;20.476;2023-03-31T15:54:02;5.80;;;2.85;;
68866;SDS011;56451;44.804;20.476;2023-03-31T15:56:41;7.80;;;3.27;;
68866;SDS011;56451;44.804;20.476;2023-03-31T16:01:49;5.28;;;1.88;;
68866;SDS011;56451;44.804;20.476;2023-03-31T16:04:15;3.53;;;1.60;;
68866;SDS011;56451;44.804;20.476;2023-03-31T16:11:47;3.65;;;1.85;;
68866;SDS011;56451;44.804;20.476;2023-03-31T16:14:18;6.05;;;2.55;;
68866;SDS011;56451;44.804;20.476;2023-03-31T16:16:49;7.35;;;2.00;;
68866;SDS011;56451;44.804;20.476;2023-03-31T16:19:23;6.05;;;2.38;;
68866;SDS011;56451;44.804;20.476;2023-03-31T16:21:53;5.47;;;2.33;;
68866;SDS011;56451;44.804;20.476;2023-03-31T16:24:27;8.88;;;3.35;;
68866;SDS011;56451;44.804;20.476;2023-03-31T16:26:57;10.13;;;4.20;;
68866;SDS011;56451;44.804;20.476;2023-03-31T16:29:31;7.20;;;3.58;;
68866;SDS011;56451;44.804;20.476;2023-03-31T16:32:09;7.57;;;3.05;;
68866;SDS011;56451;44.804;20.476;2023-03-31T16:34:50;5.37;;;2.90;;
68866;SDS011;56451;44.804;20.476;2023-03-31T16:37:17;13.00;;;3.00;;
68866;SDS011;56451;44.804;20.476;2023-03-31T16:39:43;8.15;;;2.75;;
68866;SDS011;56451;44.804;20.476;2023-03-31T16:42:09;9.00;;;2.90;;
68866;SDS011;56451;44.804;20.476;2023-03-31T16:44:35;8.27;;;4.10;;
68866;SDS011;56451;44.804;20.476;2023-03-31T16:47:01;6.07;;;2.83;;
68866;SDS011;56451;44.804;20.476;2023-03-31T16:49:27;7.47;;;2.92;;
68866;SDS011;56451;44.804;20.476;2023-03-31T16:51:53;7.37;;;3.60;;
68866;SDS011;56451;44.804;20.476;2023-03-31T16:54:19;8.57;;;3.97;;
68866;SDS011;56451;44.804;20.476;2023-03-31T16:56:45;6.38;;;3.70;;
68866;SDS011;56451;44.804;20.476;2023-03-31T16:59:12;10.00;;;4.00;;
68866;SDS011;56451;44.804;20.476;2023-03-31T17:01:38;10.90;;;4.53;;
68866;SDS011;56451;44.804;20.476;2023-03-31T17:04:05;9.75;;;5.80;;
68866;SDS011;56451;44.804;20.476;2023-03-31T17:06:31;13.77;;;7.97;;
68866;SDS011;56451;44.804;20.476;2023-03-31T17:08:57;18.77;;;8.98;;
68866;SDS011;56451;44.804;20.476;2023-03-31T17:11:23;18.33;;;8.43;;
68866;SDS011;56451;44.804;20.476;2023-03-31T17:13:51;15.07;;;9.15;;
68866;SDS011;56451;44.804;20.476;2023-03-31T17:16:18;18.40;;;8.75;;
68866;SDS011;56451;44.804;20.476;2023-03-31T17:18:44;16.33;;;8.43;;
68866;SDS011;56451;44.804;20.476;2023-03-31T17:21:11;16.92;;;9.77;;
68866;SDS011;56451;44.804;20.476;2023-03-31T17:23:40;19.63;;;9.47;;
68866;SDS011;56451;44.804;20.476;2023-03-31T17:26:07;15.32;;;9.13;;
68866;SDS011;56451;44.804;20.476;2023-03-31T17:28:34;13.65;;;8.52;;
68866;SDS011;56451;44.804;20.476;2023-03-31T17:31:01;14.98;;;7.40;;
68866;SDS011;56451;44.804;20.476;2023-03-31T17:33:34;10.98;;;6.45;;
68866;SDS011;56451;44.804;20.476;2023-03-31T17:36:00;12.93;;;6.37;;
68866;SDS011;56451;44.804;20.476;2023-03-31T17:38:27;13.95;;;6.38;;
68866;SDS011;56451;44.804;20.476;2023-03-31T17:40:53;11.73;;;6.45;;
68866;SDS011;56451;44.804;20.476;2023-03-31T17:43:19;13.87;;;6.53;;
68866;SDS011;56451;44.804;20.476;2023-03-31T17:45:46;13.45;;;6.60;;
68866;SDS011;56451;44.804;20.476;2023-03-31T17:48:13;9.88;;;6.15;;
68866;SDS011;56451;44.804;20.476;2023-03-31T17:50:40;10.98;;;5.55;;
68866;SDS011;56451;44.804;20.476;2023-03-31T17:53:06;13.02;;;5.50;;
68866;SDS011;56451;44.804;20.476;2023-03-31T17:55:34;10.20;;;5.43;;
68866;SDS011;56451;44.804;20.476;2023-03-31T17:58:02;12.82;;;5.10;;
68866;SDS011;56451;44.804;20.476;2023-03-31T18:00:30;11.20;;;5.90;;
68866;SDS011;56451;44.804;20.476;2023-03-31T18:02:56;11.73;;;6.45;;
68866;SDS011;56451;44.804;20.476;2023-03-31T18:05:22;16.47;;;7.03;;